Airfield :
LOGIN :

Register | Disclaimer

   EN    FR    IT 

 










Legend :    VFR   Marginal VFR   IFR   Intensive IFR   Very Intensive IFR
Visi :
Ceiling :
>= 8 km
>= 3000ft
5 to 8 km
1000 to 3000 ft
1500m to 5 km
500 to 1000 ft
800 to 1500m
200 to 500 ft
< 800m
< 200 ft
Symbols :   Thunderstorms  Fog  Heavy snow  Heavy precipitations  Wind > 20 kt
SIGMETs :     Misc.  Thunderstorms  Icing  Turbulence  Mountain Waves  Volcanic Ashes






- Airport Elevation : 12 ft
- IATA code : NCE


LFMN - Nice

CURRENT METAR :
  • 160930Z 34008KT 9999 BKN026 BKN033 12/09 Q1019

EXPIRED METARs :
  • 160900Z 34009KT 9999 BKN026 BKN033 12/09 Q1019
  • 160830Z 33006KT 9999 -RA BKN026 BKN033 12/08 Q1019
  • 160800Z 33005KT 9999 -RA SCT026 BKN033 12/08 Q1019
  • 160730Z 33006KT 9999 SCT030 BKN040 BKN060 12/07 Q1019
  • 160700Z 33006KT 9999 BKN043 BKN060 12/07 Q1018

TAF TAF LFMN
Valid from the 16 at 09:00 until the 17 at 15:00 UTC


160800Z 1609/1715 34005KT 9999 BKN030
BECMG 1610/1613 08010KT CAVOK
BECMG 1614/1616 08020KT
TEMPO 1616/1708 BKN020
TEMPO 1616/1715 08020G30KT
PROB40
TEMPO 1621/1624 08025G40KT
ATIS : +33 4 93 17 21 16



MET'MAP, your aeronautical weather chart ! - Copyright ORBIFLY December 2007 - Disclaimer

ORBIFLY MET'MAP TEAM :

Programming & Development : Alexandra Zaïnal
Concept & original design : Baudouin d'Aumeries
Assistance for programming : Marc-Olivier Méhu
Technical & hardware support : Manuel Goepfert

Contact : metmap@orbifly.com




SOURCES & CREDITS :

   NOAA